createdAt,value
2023-02-10T00:01:36.905Z,8.82
2023-02-10T00:04:05.064Z,7.93
2023-02-10T00:06:32.968Z,6.47
2023-02-10T00:09:01.947Z,7.75
2023-02-10T00:11:49.183Z,8.50
2023-02-10T00:14:17.936Z,7.57
2023-02-10T00:16:45.105Z,6.28
2023-02-10T00:19:24.951Z,8.27
2023-02-10T00:21:58.775Z,8.55
2023-02-10T00:24:25.791Z,6.23
2023-02-10T00:26:52.587Z,8.15
2023-02-10T00:29:19.681Z,8.57
2023-02-10T00:31:47.029Z,7.75
2023-02-10T00:34:18.628Z,7.30
2023-02-10T00:36:46.381Z,8.40
2023-02-10T00:39:14.962Z,8.05
2023-02-10T00:41:41.877Z,8.20
2023-02-10T00:44:10.148Z,7.90
2023-02-10T00:46:37.166Z,8.25
2023-02-10T00:49:07.069Z,7.38
2023-02-10T00:51:36.004Z,7.95
2023-02-10T00:54:02.768Z,8.57
2023-02-10T00:56:29.568Z,8.77
2023-02-10T00:58:57.725Z,7.30
2023-02-10T01:01:24.532Z,7.97
2023-02-10T01:03:51.369Z,7.93
2023-02-10T01:06:18.207Z,8.63
2023-02-10T01:08:44.946Z,8.93
2023-02-10T01:11:14.329Z,8.82
2023-02-10T01:13:42.966Z,10.68
2023-02-10T01:16:15.555Z,8.30
2023-02-10T01:18:44.694Z,8.63
2023-02-10T01:21:17.378Z,9.30
2023-02-10T01:23:45.180Z,9.18
2023-02-10T01:26:12.772Z,9.75
2023-02-10T01:28:41.214Z,10.68
2023-02-10T01:31:13.424Z,9.73
2023-02-10T01:33:40.963Z,9.10
2023-02-10T01:36:13.911Z,10.45
2023-02-10T01:38:41.394Z,10.60
2023-02-10T01:41:08.475Z,10.60
2023-02-10T01:44:01.778Z,10.15
2023-02-10T01:46:30.625Z,8.88
2023-02-10T01:49:00.552Z,10.25
2023-02-10T01:51:37.494Z,10.20
2023-02-10T01:54:06.887Z,10.88
2023-02-10T01:56:33.970Z,10.18
2023-02-10T01:59:00.917Z,7.75
2023-02-10T02:01:27.701Z,10.65
2023-02-10T02:03:55.484Z,9.13
2023-02-10T02:06:23.738Z,12.57
2023-02-10T02:08:51.763Z,12.50
2023-02-10T02:11:25.894Z,13.95
2023-02-10T02:14:09.807Z,11.95
2023-02-10T02:16:44.719Z,11.30
2023-02-10T02:19:50.456Z,11.02
2023-02-10T02:22:20.171Z,10.60
2023-02-10T02:25:17.812Z,10.05
2023-02-10T02:28:01.830Z,10.05
2023-02-10T02:30:56.873Z,10.30
2023-02-10T02:36:08.054Z,11.40
2023-02-10T02:38:42.607Z,10.85
2023-02-10T02:41:11.257Z,10.90
2023-02-10T02:43:40.171Z,10.13
2023-02-10T02:46:31.738Z,10.45
2023-02-10T02:49:33.960Z,13.70
2023-02-10T02:52:11.682Z,12.80
2023-02-10T02:54:49.957Z,10.32
2023-02-10T02:57:31.080Z,11.20
2023-02-10T03:00:05.388Z,10.63
2023-02-10T03:02:34.127Z,9.73
2023-02-10T03:05:01.095Z,10.50
2023-02-10T03:07:27.885Z,9.27
2023-02-10T03:09:55.076Z,10.02
2023-02-10T03:12:21.814Z,10.55
2023-02-10T03:14:48.503Z,10.75
2023-02-10T03:17:15.271Z,10.07
2023-02-10T03:19:42.038Z,16.83
2023-02-10T03:22:08.875Z,16.83
2023-02-10T03:25:25.254Z,17.15
2023-02-10T03:27:53.269Z,14.40
2023-02-10T03:30:20.308Z,11.75
2023-02-10T03:32:47.543Z,9.77
2023-02-10T03:35:14.456Z,10.80
2023-02-10T03:37:41.212Z,10.60
2023-02-10T03:40:08.488Z,10.75
2023-02-10T03:42:35.266Z,10.75
2023-02-10T03:45:02.177Z,8.80
2023-02-10T03:47:28.946Z,10.57
2023-02-10T03:49:59.522Z,8.70
2023-02-10T03:52:26.337Z,9.60
2023-02-10T03:54:53.093Z,9.52
2023-02-10T03:57:19.875Z,9.85
2023-02-10T03:59:46.646Z,9.18
2023-02-10T04:02:13.494Z,10.10
2023-02-10T04:04:40.277Z,10.32
2023-02-10T04:07:07.003Z,8.93
2023-02-10T04:09:33.750Z,10.00
2023-02-10T04:12:00.570Z,8.43
2023-02-10T04:14:27.275Z,11.68
2023-02-10T04:16:53.968Z,11.70
2023-02-10T04:19:26.998Z,9.13
2023-02-10T04:22:07.102Z,11.30
2023-02-10T04:24:40.776Z,10.48
2023-02-10T04:27:07.506Z,11.88
2023-02-10T04:29:39.705Z,10.60
2023-02-10T04:32:07.552Z,11.35
2023-02-10T04:34:35.115Z,13.68
2023-02-10T04:37:02.551Z,14.23
2023-02-10T04:39:29.342Z,14.18
2023-02-10T04:41:56.229Z,12.25
2023-02-10T04:44:22.981Z,14.65
2023-02-10T04:46:51.354Z,13.23
2023-02-10T04:49:18.718Z,12.70
2023-02-10T04:51:45.479Z,10.90
2023-02-10T04:54:12.482Z,11.27
2023-02-10T04:56:39.328Z,12.18
2023-02-10T04:59:06.101Z,11.07
2023-02-10T05:01:33.402Z,14.20
2023-02-10T05:04:00.136Z,19.02
2023-02-10T05:06:26.899Z,19.27
2023-02-10T05:08:53.868Z,16.58
2023-02-10T05:11:26.672Z,18.17
2023-02-10T05:13:53.439Z,17.88
2023-02-10T05:16:20.351Z,16.80
2023-02-10T05:18:50.317Z,14.77
2023-02-10T05:21:17.569Z,14.85
2023-02-10T05:23:44.478Z,14.98
2023-02-10T05:26:11.442Z,13.32
2023-02-10T05:28:38.385Z,15.35
2023-02-10T05:31:07.519Z,14.13
2023-02-10T05:33:37.868Z,14.07
2023-02-10T05:36:06.138Z,14.45
2023-02-10T05:38:33.038Z,17.13
2023-02-10T05:40:59.837Z,18.25
2023-02-10T05:43:26.859Z,18.85
2023-02-10T05:45:53.630Z,17.33
2023-02-10T05:48:20.557Z,19.92
2023-02-10T05:50:51.220Z,18.35
2023-02-10T05:53:18.061Z,17.45
2023-02-10T05:55:47.069Z,18.98
2023-02-10T05:58:14.092Z,15.27
2023-02-10T06:00:40.834Z,17.48
2023-02-10T06:03:09.414Z,16.35
2023-02-10T06:05:36.552Z,16.98
2023-02-10T06:08:03.564Z,18.15
2023-02-10T06:10:30.401Z,17.73
2023-02-10T06:12:57.165Z,15.77
2023-02-10T06:15:25.232Z,15.30
2023-02-10T06:17:52.049Z,15.15
2023-02-10T06:20:19.008Z,14.65
2023-02-10T06:22:45.762Z,14.57
2023-02-10T06:25:12.495Z,16.60
2023-02-10T06:27:39.220Z,17.58
2023-02-10T06:30:06.834Z,17.52
2023-02-10T06:32:33.544Z,15.65
2023-02-10T06:35:00.309Z,15.35
2023-02-10T06:37:27.106Z,15.70
2023-02-10T06:39:54.024Z,16.67
2023-02-10T06:42:20.855Z,17.08
2023-02-10T06:44:47.538Z,17.38
2023-02-10T06:47:14.348Z,13.95
2023-02-10T06:49:41.250Z,14.73
2023-02-10T06:52:16.485Z,15.77
2023-02-10T06:54:44.135Z,15.52
2023-02-10T06:57:10.932Z,14.52
2023-02-10T06:59:37.778Z,16.23
2023-02-10T07:02:05.603Z,16.45
2023-02-10T07:04:32.928Z,15.73
2023-02-10T07:06:59.647Z,16.17
2023-02-10T07:09:26.420Z,15.43
2023-02-10T07:11:53.379Z,16.45
2023-02-10T07:14:20.820Z,15.13
2023-02-10T07:16:48.550Z,17.08
2023-02-10T07:19:15.527Z,17.27
2023-02-10T07:21:42.463Z,16.17
2023-02-10T07:24:09.314Z,18.90
2023-02-10T07:26:36.357Z,18.35
2023-02-10T07:29:03.231Z,19.73
2023-02-10T07:31:38.831Z,18.33
2023-02-10T07:34:06.902Z,18.25
2023-02-10T07:36:34.443Z,21.75
2023-02-10T07:39:01.204Z,22.85
2023-02-10T07:41:27.902Z,20.95
2023-02-10T07:43:54.852Z,21.40
2023-02-10T07:46:21.896Z,20.63
2023-02-10T07:48:48.744Z,20.75
2023-02-10T07:51:15.552Z,22.17
2023-02-10T07:53:45.229Z,22.95
2023-02-10T07:56:12.530Z,22.20
2023-02-10T07:58:39.498Z,22.30
2023-02-10T08:01:08.027Z,22.90
2023-02-10T08:03:35.028Z,22.33
2023-02-10T08:06:01.994Z,24.20
2023-02-10T08:08:28.784Z,23.42
2023-02-10T08:10:55.910Z,30.30
2023-02-10T08:13:22.952Z,25.55
2023-02-10T08:15:50.015Z,25.58
2023-02-10T08:18:17.644Z,23.25
2023-02-10T08:20:44.326Z,25.55
2023-02-10T08:23:15.671Z,22.42
2023-02-10T08:25:42.504Z,22.77
2023-02-10T08:28:09.345Z,24.95
2023-02-10T08:30:36.287Z,26.85
2023-02-10T08:33:03.154Z,28.00
2023-02-10T08:35:30.081Z,25.58
2023-02-10T08:37:56.852Z,24.15
2023-02-10T08:40:23.579Z,28.90
2023-02-10T08:42:52.468Z,28.45
2023-02-10T08:45:19.333Z,27.80
2023-02-10T08:47:46.076Z,28.83
2023-02-10T08:50:12.992Z,25.45
2023-02-10T08:52:39.818Z,24.90
2023-02-10T08:55:08.292Z,26.08
2023-02-10T08:57:35.379Z,28.98
2023-02-10T09:00:02.390Z,27.65
2023-02-10T09:02:29.225Z,26.45
2023-02-10T09:05:08.926Z,25.40
2023-02-10T09:07:37.064Z,24.80
2023-02-10T09:10:03.887Z,23.85
2023-02-10T09:12:30.603Z,35.78
2023-02-10T09:14:57.601Z,30.63
2023-02-10T09:17:31.128Z,28.27
2023-02-10T09:20:18.447Z,34.20
2023-02-10T09:22:53.282Z,31.25
2023-02-10T09:25:20.483Z,32.70
2023-02-10T09:27:48.636Z,31.00
2023-02-10T09:30:15.544Z,34.03
2023-02-10T09:32:42.294Z,31.08
2023-02-10T09:35:09.170Z,36.53
2023-02-10T09:37:35.950Z,31.58
2023-02-10T09:40:02.824Z,34.58
2023-02-10T09:42:56.045Z,33.20
2023-02-10T09:45:43.271Z,32.67
2023-02-10T09:48:28.634Z,35.83
2023-02-10T09:50:55.371Z,37.55
2023-02-10T09:53:31.144Z,35.92
2023-02-10T09:56:03.104Z,35.13
2023-02-10T09:58:51.794Z,38.25
2023-02-10T10:01:35.894Z,32.00
2023-02-10T10:04:11.594Z,39.17
2023-02-10T10:06:42.086Z,35.63
2023-02-10T10:09:08.973Z,49.33
2023-02-10T10:11:49.110Z,43.15
2023-02-10T10:14:40.452Z,45.28
2023-02-10T10:17:29.312Z,39.78
2023-02-10T10:20:24.109Z,43.53
2023-02-10T10:23:03.835Z,48.42
2023-02-10T10:25:51.803Z,42.58
2023-02-10T10:28:41.702Z,43.33
2023-02-10T10:31:15.289Z,44.60
2023-02-10T10:34:05.164Z,39.90
2023-02-10T10:36:48.686Z,43.65
2023-02-10T10:39:35.525Z,47.38
2023-02-10T10:42:15.694Z,46.28
2023-02-10T10:44:43.821Z,39.45
2023-02-10T10:47:19.588Z,38.70
2023-02-10T10:49:47.980Z,36.72
2023-02-10T10:52:37.237Z,39.33
2023-02-10T10:55:13.409Z,37.85
2023-02-10T10:57:41.324Z,29.40
2023-02-10T11:00:30.248Z,40.30
2023-02-10T11:03:03.756Z,39.28
2023-02-10T11:05:38.797Z,39.92
2023-02-10T11:08:07.919Z,35.03
2023-02-10T11:10:55.328Z,36.78
2023-02-10T11:13:26.897Z,36.50
2023-02-10T11:16:12.190Z,38.22
2023-02-10T11:18:40.404Z,38.35
2023-02-10T11:21:11.868Z,40.58
2023-02-10T11:23:53.951Z,37.75
2023-02-10T11:26:28.198Z,34.03
2023-02-10T11:28:56.266Z,40.65
2023-02-10T11:31:23.042Z,35.42
2023-02-10T11:34:06.048Z,40.35
2023-02-10T11:36:41.645Z,35.92
2023-02-10T11:39:34.670Z,38.30
2023-02-10T11:42:24.383Z,40.50
2023-02-10T11:44:58.049Z,41.35
2023-02-10T11:47:27.579Z,38.42
2023-02-10T11:49:54.499Z,40.58
2023-02-10T11:52:24.184Z,42.10
2023-02-10T11:54:52.311Z,38.28
2023-02-10T11:57:37.634Z,37.65
2023-02-10T12:00:07.314Z,32.40
2023-02-10T12:02:51.674Z,37.88
2023-02-10T12:06:07.130Z,33.42
2023-02-10T12:09:01.521Z,43.85
2023-02-10T12:11:37.152Z,35.15
2023-02-10T12:14:28.438Z,40.15
2023-02-10T12:17:08.905Z,37.67
2023-02-10T12:20:00.597Z,43.67
2023-02-10T12:22:53.384Z,46.88
2023-02-10T12:25:37.684Z,41.67
2023-02-10T12:28:30.686Z,50.38
2023-02-10T12:31:32.304Z,42.20
2023-02-10T12:34:18.557Z,43.50
2023-02-10T12:37:21.005Z,42.60
2023-02-10T12:39:57.661Z,46.05
2023-02-10T12:42:30.593Z,45.03
2023-02-10T12:45:17.837Z,43.90
2023-02-10T12:48:03.956Z,41.45
2023-02-10T12:50:39.801Z,40.25
2023-02-10T12:53:19.985Z,40.65
2023-02-10T12:56:18.700Z,42.97
2023-02-10T12:58:50.601Z,42.47
2023-02-10T13:01:32.614Z,43.78
2023-02-10T13:04:17.941Z,43.10
2023-02-10T13:06:57.228Z,49.70
2023-02-10T13:09:29.655Z,42.33
2023-02-10T13:12:28.520Z,45.72
2023-02-10T13:15:13.880Z,50.22
2023-02-10T13:17:46.988Z,42.88
2023-02-10T13:20:49.975Z,47.75
2023-02-10T13:23:38.351Z,52.50
2023-02-10T13:26:59.577Z,52.10
2023-02-10T13:29:36.331Z,50.17
2023-02-10T13:32:47.322Z,44.55
2023-02-10T13:35:21.461Z,44.10
2023-02-10T13:37:52.901Z,48.55
2023-02-10T13:40:54.617Z,48.65
2023-02-10T13:43:35.500Z,42.33
2023-02-10T13:46:04.648Z,43.50
2023-02-10T13:48:35.467Z,46.28
2023-02-10T13:51:06.856Z,45.03
2023-02-10T13:53:36.407Z,45.30
2023-02-10T13:56:19.917Z,49.85
2023-02-10T13:58:55.600Z,46.60
2023-02-10T14:01:32.413Z,46.72
2023-02-10T14:03:59.232Z,44.08
2023-02-10T14:06:38.793Z,44.05
2023-02-10T14:09:18.056Z,38.22
2023-02-10T14:11:47.402Z,33.92
2023-02-10T14:14:36.189Z,42.92
2023-02-10T14:17:30.663Z,42.13
2023-02-10T14:19:59.119Z,41.38
2023-02-10T14:22:39.481Z,41.90
2023-02-10T14:25:31.026Z,34.70
2023-02-10T14:27:58.811Z,42.65
2023-02-10T14:30:46.761Z,44.40
2023-02-10T14:33:36.760Z,44.95
2023-02-10T14:36:19.940Z,38.47
2023-02-10T14:38:52.084Z,41.42
2023-02-10T14:41:21.346Z,41.65
2023-02-10T14:43:54.273Z,42.88
2023-02-10T14:46:27.986Z,41.28
2023-02-10T14:49:12.095Z,43.30
2023-02-10T14:51:51.978Z,48.63
2023-02-10T14:54:24.555Z,42.85
2023-02-10T14:56:58.816Z,41.33
2023-02-10T14:59:31.322Z,41.33
2023-02-10T15:02:16.748Z,36.42
2023-02-10T15:04:51.941Z,45.83
2023-02-10T15:07:42.686Z,42.03
2023-02-10T15:10:15.334Z,40.22
2023-02-10T15:12:51.192Z,40.08
2023-02-10T15:15:43.842Z,42.50
2023-02-10T15:18:21.227Z,41.17
2023-02-10T15:20:58.271Z,42.65
2023-02-10T15:23:32.051Z,35.58
2023-02-10T15:26:01.604Z,37.33
2023-02-10T15:28:30.550Z,41.83
2023-02-10T15:31:06.630Z,34.80
2023-02-10T15:33:40.486Z,38.83
2023-02-10T15:36:18.614Z,37.58
2023-02-10T15:38:51.793Z,33.30
2023-02-10T15:41:58.539Z,34.45
2023-02-10T15:44:30.256Z,32.33
2023-02-10T15:47:17.985Z,31.85
2023-02-10T15:49:59.336Z,30.60
2023-02-10T15:52:38.892Z,33.40
2023-02-10T15:55:15.934Z,31.25
2023-02-10T15:57:42.740Z,31.40
2023-02-10T16:00:21.442Z,26.33
2023-02-10T16:02:48.369Z,29.15
2023-02-10T16:05:15.357Z,25.70
2023-02-10T16:07:42.201Z,29.00
2023-02-10T16:10:20.485Z,28.02
2023-02-10T16:12:48.107Z,28.38
2023-02-10T16:15:21.022Z,23.70
2023-02-10T16:17:51.192Z,26.63
2023-02-10T16:20:22.352Z,26.60
2023-02-10T16:22:49.751Z,26.73
2023-02-10T16:25:32.180Z,28.77
2023-02-10T16:28:13.266Z,26.73
2023-02-10T16:30:40.431Z,27.80
2023-02-10T16:33:07.239Z,26.13
2023-02-10T16:35:34.075Z,26.88
2023-02-10T16:38:00.948Z,27.63
2023-02-10T16:40:29.735Z,25.63
2023-02-10T16:42:56.675Z,29.42
2023-02-10T16:45:25.380Z,30.25
2023-02-10T16:47:53.233Z,23.95
2023-02-10T16:50:31.419Z,28.67
2023-02-10T16:52:58.525Z,27.20
2023-02-10T16:55:25.898Z,28.95
2023-02-10T16:57:54.865Z,26.30
2023-02-10T17:00:22.549Z,38.92
2023-02-10T17:02:49.979Z,40.40
2023-02-10T17:05:17.786Z,39.63
2023-02-10T17:07:44.740Z,41.45
2023-02-10T17:10:26.773Z,53.00
2023-02-10T17:12:56.825Z,38.70
2023-02-10T17:15:24.148Z,41.55
2023-02-10T17:17:51.029Z,39.03
2023-02-10T17:20:30.947Z,34.15
2023-02-10T17:22:58.117Z,34.33
2023-02-10T17:25:29.592Z,30.88
2023-02-10T17:27:57.076Z,31.25
2023-02-10T17:30:25.566Z,29.48
2023-02-10T17:32:52.732Z,30.48
2023-02-10T17:35:21.815Z,30.25
2023-02-10T17:37:49.357Z,27.45
2023-02-10T17:40:26.026Z,28.33
2023-02-10T17:42:53.112Z,30.25
2023-02-10T17:45:20.111Z,28.63
2023-02-10T17:47:47.821Z,31.00
2023-02-10T17:50:15.584Z,39.10
2023-02-10T17:52:42.338Z,36.00
2023-02-10T17:55:20.742Z,37.20
2023-02-10T17:57:48.972Z,37.42
2023-02-10T18:00:21.904Z,30.98
2023-02-10T18:02:54.960Z,32.83
2023-02-10T18:05:21.634Z,29.80
2023-02-10T18:07:48.439Z,35.53
2023-02-10T18:10:15.652Z,34.78
2023-02-10T18:12:43.007Z,32.88
2023-02-10T18:15:10.524Z,40.03
2023-02-10T18:17:37.530Z,45.42
2023-02-10T18:20:05.688Z,46.95
2023-02-10T18:22:33.198Z,51.50
2023-02-10T18:25:00.459Z,51.50
2023-02-10T18:27:27.455Z,52.72
2023-02-10T18:29:54.233Z,49.50
2023-02-10T18:32:21.080Z,47.90
2023-02-10T18:34:48.530Z,46.03
2023-02-10T18:37:15.381Z,42.92
2023-02-10T18:39:42.123Z,43.67
2023-02-10T18:42:09.687Z,41.47
2023-02-10T18:44:36.438Z,44.92
2023-02-10T18:47:03.238Z,41.42
2023-02-10T18:49:30.029Z,47.63
2023-02-10T18:51:56.911Z,50.08
2023-02-10T18:54:23.907Z,44.00
2023-02-10T18:56:51.304Z,44.05
2023-02-10T18:59:21.053Z,39.58
2023-02-10T19:01:47.797Z,43.97
2023-02-10T19:04:15.167Z,39.20
2023-02-10T19:06:41.908Z,39.55
2023-02-10T19:09:08.874Z,42.85
2023-02-10T19:11:35.699Z,46.80
2023-02-10T19:14:02.423Z,38.30
2023-02-10T19:16:29.441Z,41.10
2023-02-10T19:18:58.776Z,38.67
2023-02-10T19:21:25.585Z,47.00
2023-02-10T19:23:52.656Z,47.45
2023-02-10T19:26:26.809Z,41.88
2023-02-10T19:28:53.845Z,39.80
2023-02-10T19:31:20.993Z,41.97
2023-02-10T19:33:48.109Z,36.40
2023-02-10T19:36:17.443Z,36.28
2023-02-10T19:38:46.310Z,36.85
2023-02-10T19:41:19.553Z,30.90
2023-02-10T19:43:47.797Z,29.33
2023-02-10T19:46:28.642Z,36.65
2023-02-10T19:49:02.093Z,33.33
2023-02-10T19:51:28.813Z,31.92
2023-02-10T19:53:55.543Z,31.55
2023-02-10T19:56:22.564Z,32.55
2023-02-10T19:58:49.341Z,33.70
2023-02-10T20:01:18.153Z,32.45
2023-02-10T20:03:47.355Z,31.95
2023-02-10T20:06:17.721Z,34.65
2023-02-10T20:08:44.839Z,41.30
2023-02-10T20:11:16.524Z,40.05
2023-02-10T20:13:43.805Z,40.10
2023-02-10T20:16:11.068Z,35.28
2023-02-10T20:18:38.293Z,37.08
2023-02-10T20:21:07.735Z,31.42
2023-02-10T20:23:39.997Z,30.85
2023-02-10T20:26:08.610Z,31.30
2023-02-10T20:28:36.187Z,29.60
2023-02-10T20:31:04.318Z,26.45
2023-02-10T20:33:31.672Z,28.08
2023-02-10T20:36:00.941Z,27.27
2023-02-10T20:38:28.180Z,29.15
2023-02-10T20:41:03.771Z,27.58
2023-02-10T20:43:31.031Z,25.58
2023-02-10T20:45:57.877Z,25.15
2023-02-10T20:48:25.243Z,26.90
2023-02-10T20:50:52.029Z,26.92
2023-02-10T20:53:19.235Z,25.45
2023-02-10T20:55:47.064Z,27.70
2023-02-10T20:58:13.992Z,24.60
2023-02-10T21:00:41.418Z,28.60
2023-02-10T21:03:08.330Z,27.90
2023-02-10T21:05:35.135Z,27.30
2023-02-10T21:08:01.885Z,29.42
2023-02-10T21:10:28.809Z,27.05
2023-02-10T21:12:56.815Z,25.88
2023-02-10T21:15:23.699Z,27.00
2023-02-10T21:17:50.431Z,30.20
2023-02-10T21:20:17.327Z,30.02
2023-02-10T21:22:44.115Z,31.30
2023-02-10T21:25:11.291Z,28.85
2023-02-10T21:27:39.705Z,30.45
2023-02-10T21:30:08.952Z,31.00
2023-02-10T21:32:35.961Z,28.95
2023-02-10T21:35:02.937Z,30.05
2023-02-10T21:37:29.858Z,27.58
2023-02-10T21:39:56.838Z,28.27
2023-02-10T21:42:23.593Z,30.00
2023-02-10T21:44:50.427Z,26.95
2023-02-10T21:47:17.201Z,26.30
2023-02-10T21:49:43.952Z,27.58
2023-02-10T21:52:12.862Z,28.02
2023-02-10T21:54:40.897Z,29.05
2023-02-10T21:57:09.090Z,24.45
2023-02-10T21:59:36.445Z,27.40
2023-02-10T22:02:11.731Z,25.95
2023-02-10T22:04:58.707Z,27.20
2023-02-10T22:07:33.921Z,29.00
2023-02-10T22:10:00.682Z,27.75
2023-02-10T22:12:27.517Z,27.55
2023-02-10T22:14:54.294Z,27.30
2023-02-10T22:17:21.055Z,26.48
2023-02-10T22:19:47.799Z,27.35
2023-02-10T22:22:14.689Z,26.38
2023-02-10T22:24:41.499Z,24.42
2023-02-10T22:27:08.377Z,28.30
2023-02-10T22:29:36.610Z,29.50
2023-02-10T22:32:04.266Z,26.85
2023-02-10T22:34:31.136Z,26.05
2023-02-10T22:36:58.271Z,28.33
2023-02-10T22:39:25.055Z,24.83
2023-02-10T22:41:52.420Z,25.13
2023-02-10T22:44:19.271Z,28.00
2023-02-10T22:46:46.015Z,26.70
2023-02-10T22:49:14.435Z,29.38
2023-02-10T22:51:42.704Z,28.95
2023-02-10T22:54:12.349Z,26.63
2023-02-10T22:56:40.907Z,31.23
2023-02-10T22:59:08.506Z,29.27
2023-02-10T23:01:40.782Z,30.90
2023-02-10T23:04:11.879Z,32.45
2023-02-10T23:06:39.653Z,34.72
2023-02-10T23:09:07.618Z,29.58
2023-02-10T23:11:37.308Z,31.83
2023-02-10T23:14:04.402Z,28.67
2023-02-10T23:16:31.158Z,31.23
2023-02-10T23:18:58.809Z,26.38
2023-02-10T23:21:27.482Z,27.98
2023-02-10T23:23:55.548Z,27.20
2023-02-10T23:26:24.868Z,28.63
2023-02-10T23:28:52.041Z,26.45
2023-02-10T23:31:22.240Z,26.75
2023-02-10T23:33:51.313Z,29.88
2023-02-10T23:36:18.978Z,26.05
2023-02-10T23:38:45.878Z,26.50
2023-02-10T23:41:12.846Z,27.27
2023-02-10T23:43:39.659Z,25.77
2023-02-10T23:46:07.873Z,28.05
2023-02-10T23:48:35.430Z,27.02
2023-02-10T23:51:10.573Z,27.67
2023-02-10T23:53:37.502Z,25.92
2023-02-10T23:56:05.614Z,25.50
2023-02-10T23:58:32.682Z,31.00
